createdAt,value
2023-04-11T00:00:22.802Z,281.00
2023-04-11T00:01:22.731Z,274.00
2023-04-11T00:02:22.795Z,275.00
2023-04-11T00:03:23.191Z,284.00
2023-04-11T00:04:22.837Z,294.00
2023-04-11T00:05:22.678Z,297.00
2023-04-11T00:06:22.684Z,305.00
2023-04-11T00:07:22.649Z,313.00
2023-04-11T00:08:22.654Z,307.00
2023-04-11T00:09:22.622Z,313.00
2023-04-11T00:10:22.617Z,315.00
2023-04-11T00:11:22.608Z,314.00
2023-04-11T00:12:22.617Z,317.00
2023-04-11T00:13:22.572Z,313.00
2023-04-11T00:14:22.573Z,306.00
2023-04-11T00:15:22.558Z,299.00
2023-04-11T00:16:22.570Z,301.00
2023-04-11T00:17:22.574Z,292.00
2023-04-11T00:18:22.515Z,284.00
2023-04-11T00:19:22.476Z,281.00
2023-04-11T00:20:22.494Z,282.00
2023-04-11T00:21:22.468Z,285.00
2023-04-11T00:22:22.472Z,280.00
2023-04-11T00:23:22.461Z,280.00
2023-04-11T00:24:22.435Z,278.00
2023-04-11T00:25:22.414Z,276.00
2023-04-11T00:26:22.431Z,275.00
2023-04-11T00:27:22.399Z,276.00
2023-04-11T00:28:22.388Z,274.00
2023-04-11T00:29:22.363Z,274.00
2023-04-11T00:30:22.411Z,271.00
2023-04-11T00:31:22.342Z,271.00
2023-04-11T00:32:22.330Z,265.00
2023-04-11T00:33:22.287Z,268.00
2023-04-11T00:34:22.302Z,270.00
2023-04-11T00:35:22.301Z,277.00
2023-04-11T00:36:22.344Z,273.00
2023-04-11T00:37:22.257Z,265.00
2023-04-11T00:38:22.230Z,268.00
2023-04-11T00:39:22.231Z,273.00
2023-04-11T00:40:22.214Z,279.00
2023-04-11T00:41:22.211Z,281.00
2023-04-11T00:42:22.182Z,288.00
2023-04-11T00:43:22.180Z,294.00
2023-04-11T00:44:22.165Z,301.00
2023-04-11T00:45:22.138Z,306.00
2023-04-11T00:46:22.183Z,315.00
2023-04-11T00:47:22.135Z,315.00
2023-04-11T00:48:22.112Z,304.00
2023-04-11T00:49:22.118Z,303.00
2023-04-11T00:50:22.079Z,308.00
2023-04-11T00:51:22.083Z,303.00
2023-04-11T00:52:22.033Z,306.00
2023-04-11T00:53:22.044Z,303.00
2023-04-11T00:54:22.030Z,301.00
2023-04-11T00:55:22.040Z,308.00
2023-04-11T00:56:22.001Z,309.00
2023-04-11T00:57:21.987Z,303.00
2023-04-11T00:58:21.973Z,308.00
2023-04-11T00:59:21.948Z,312.00
2023-04-11T01:00:21.962Z,308.00
2023-04-11T01:01:22.577Z,304.00
2023-04-11T01:02:21.952Z,301.00
2023-04-11T01:03:22.162Z,286.00
2023-04-11T01:04:22.072Z,277.00
2023-04-11T01:05:21.944Z,281.00
2023-04-11T01:06:21.856Z,292.00
2023-04-11T01:07:21.847Z,291.00
2023-04-11T01:08:21.878Z,287.00
2023-04-11T01:09:21.851Z,289.00
2023-04-11T01:10:21.803Z,296.00
2023-04-11T01:11:21.809Z,289.00
2023-04-11T01:12:21.834Z,276.00
2023-04-11T01:13:21.814Z,273.00
2023-04-11T01:14:21.801Z,277.00
2023-04-11T01:15:21.766Z,279.00
2023-04-11T01:16:22.056Z,285.00
2023-04-11T01:17:21.884Z,266.00
2023-04-11T01:18:21.765Z,241.00
2023-04-11T01:19:21.740Z,237.00
2023-04-11T01:20:21.688Z,236.00
2023-04-11T01:21:21.679Z,235.00
2023-04-11T01:22:21.692Z,243.00
2023-04-11T01:23:21.645Z,244.00
2023-04-11T01:24:21.678Z,243.00
2023-04-11T01:25:21.676Z,242.00
2023-04-11T01:26:21.633Z,242.00
2023-04-11T01:27:21.614Z,246.00
2023-04-11T01:28:21.579Z,244.00
2023-04-11T01:29:21.596Z,244.00
2023-04-11T01:30:21.552Z,240.00
2023-04-11T01:31:21.592Z,238.00
2023-04-11T01:32:21.542Z,240.00
2023-04-11T01:33:21.518Z,241.00
2023-04-11T01:34:21.498Z,243.00
2023-04-11T01:35:21.492Z,247.00
2023-04-11T01:36:21.474Z,247.00
2023-04-11T01:37:21.459Z,247.00
2023-04-11T01:38:21.460Z,248.00
2023-04-11T01:39:21.460Z,249.00
2023-04-11T01:40:21.453Z,246.00
2023-04-11T01:41:21.443Z,248.00
2023-04-11T01:42:21.421Z,258.00
2023-04-11T01:43:21.386Z,249.00
2023-04-11T01:44:21.362Z,251.00
2023-04-11T01:45:21.343Z,248.00
2023-04-11T01:46:21.350Z,260.00
2023-04-11T01:47:21.345Z,249.00
2023-04-11T01:48:21.422Z,243.00
2023-04-11T01:49:21.307Z,244.00
2023-04-11T01:50:21.304Z,241.00
2023-04-11T01:51:21.299Z,242.00
2023-04-11T01:52:21.297Z,241.00
2023-04-11T01:53:21.269Z,241.00
2023-04-11T01:54:21.224Z,236.00
2023-04-11T01:55:21.220Z,236.00
2023-04-11T01:56:21.259Z,233.00
2023-04-11T01:57:21.218Z,235.00
2023-04-11T01:58:21.186Z,236.00
2023-04-11T01:59:21.196Z,235.00
2023-04-11T02:00:21.187Z,234.00
2023-04-11T02:01:21.226Z,233.00
2023-04-11T02:02:21.242Z,232.00
2023-04-11T02:03:21.485Z,233.00
2023-04-11T02:04:21.245Z,227.00
2023-04-11T02:05:21.097Z,227.00
2023-04-11T02:06:21.094Z,230.00
2023-04-11T02:07:21.082Z,230.00
2023-04-11T02:08:21.054Z,229.00
2023-04-11T02:09:21.102Z,231.00
2023-04-11T02:10:21.050Z,234.00
2023-04-11T02:11:21.040Z,237.00
2023-04-11T02:12:21.016Z,242.00
2023-04-11T02:13:21.007Z,243.00
2023-04-11T02:14:20.973Z,239.00
2023-04-11T02:15:20.965Z,241.00
2023-04-11T02:16:21.020Z,241.00
2023-04-11T02:17:20.955Z,239.00
2023-04-11T02:18:20.929Z,234.00
2023-04-11T02:19:20.953Z,236.00
2023-04-11T02:20:20.907Z,234.00
2023-04-11T02:21:20.899Z,237.00
2023-04-11T02:22:20.875Z,234.00
2023-04-11T02:23:20.874Z,237.00
2023-04-11T02:24:20.844Z,239.00
2023-04-11T02:25:20.838Z,242.00
2023-04-11T02:26:20.828Z,241.00
2023-04-11T02:27:20.798Z,239.00
2023-04-11T02:28:20.824Z,237.00
2023-04-11T02:29:20.770Z,236.00
2023-04-11T02:30:20.773Z,238.00
2023-04-11T02:31:20.806Z,242.00
2023-04-11T02:32:20.826Z,243.00
2023-04-11T02:33:20.724Z,239.00
2023-04-11T02:34:20.728Z,238.00
2023-04-11T02:35:20.701Z,238.00
2023-04-11T02:36:20.689Z,241.00
2023-04-11T02:37:20.681Z,240.00
2023-04-11T02:38:20.674Z,239.00
2023-04-11T02:39:20.650Z,242.00
2023-04-11T02:40:20.653Z,247.00
2023-04-11T02:41:20.625Z,247.00
2023-04-11T02:42:20.611Z,245.00
2023-04-11T02:43:20.589Z,248.00
2023-04-11T02:44:20.583Z,247.00
2023-04-11T02:45:20.587Z,243.00
2023-04-11T02:46:20.557Z,242.00
2023-04-11T02:47:20.560Z,248.00
2023-04-11T02:48:20.531Z,247.00
2023-04-11T02:49:20.528Z,248.00
2023-04-11T02:50:20.533Z,250.00
2023-04-11T02:51:20.500Z,254.00
2023-04-11T02:52:20.487Z,253.00
2023-04-11T02:53:20.476Z,249.00
2023-04-11T02:54:20.455Z,257.00
2023-04-11T02:55:20.434Z,267.00
2023-04-11T02:56:20.422Z,273.00
2023-04-11T02:57:20.405Z,260.00
2023-04-11T02:58:20.404Z,251.00
2023-04-11T02:59:20.384Z,261.00
2023-04-11T03:00:20.376Z,270.00
2023-04-11T03:01:20.383Z,268.00
2023-04-11T03:02:20.462Z,263.00
2023-04-11T03:03:20.540Z,250.00
2023-04-11T03:04:20.345Z,260.00
2023-04-11T03:05:20.322Z,256.00
2023-04-11T03:06:20.276Z,276.00
2023-04-11T03:07:20.309Z,263.00
2023-04-11T03:08:20.287Z,265.00
2023-04-11T03:09:20.246Z,266.00
2023-04-11T03:10:20.269Z,284.00
2023-04-11T03:11:20.257Z,262.00
2023-04-11T03:12:20.215Z,261.00
2023-04-11T03:13:20.242Z,267.00
2023-04-11T03:14:20.198Z,264.00
2023-04-11T03:15:20.168Z,260.00
2023-04-11T03:16:20.178Z,269.00
2023-04-11T03:17:20.257Z,262.00
2023-04-11T03:18:20.139Z,265.00
2023-04-11T03:19:20.110Z,268.00
2023-04-11T03:20:20.145Z,284.00
2023-04-11T03:21:20.136Z,282.00
2023-04-11T03:22:20.116Z,283.00
2023-04-11T03:23:20.976Z,272.00
2023-04-11T03:24:20.056Z,257.00
2023-04-11T03:25:20.091Z,264.00
2023-04-11T03:26:20.063Z,259.00
2023-04-11T03:27:20.036Z,256.00
2023-04-11T03:28:20.010Z,256.00
2023-04-11T03:29:20.018Z,258.00
2023-04-11T03:30:20.003Z,256.00
2023-04-11T03:31:20.004Z,256.00
2023-04-11T03:32:19.963Z,259.00
2023-04-11T03:33:19.946Z,271.00
2023-04-11T03:34:19.910Z,284.00
2023-04-11T03:35:19.908Z,263.00
2023-04-11T03:36:19.939Z,262.00
2023-04-11T03:37:19.894Z,266.00
2023-04-11T03:38:19.899Z,270.00
2023-04-11T03:39:19.852Z,268.00
2023-04-11T03:40:19.857Z,273.00
2023-04-11T03:41:19.854Z,268.00
2023-04-11T03:42:19.829Z,288.00
2023-04-11T03:43:19.806Z,263.00
2023-04-11T03:44:19.771Z,269.00
2023-04-11T03:45:19.782Z,260.00
2023-04-11T03:46:19.849Z,261.00
2023-04-11T03:47:19.756Z,258.00
2023-04-11T03:48:20.473Z,270.00
2023-04-11T03:49:19.742Z,262.00
2023-04-11T03:50:19.706Z,259.00
2023-04-11T03:51:19.721Z,259.00
2023-04-11T03:52:19.702Z,254.00
2023-04-11T03:53:19.697Z,255.00
2023-04-11T03:54:19.654Z,248.00
2023-04-11T03:55:19.674Z,256.00
2023-04-11T03:56:19.663Z,256.00
2023-04-11T03:57:19.625Z,258.00
2023-04-11T03:58:19.606Z,251.00
2023-04-11T03:59:19.611Z,259.00
2023-04-11T04:00:19.565Z,258.00
2023-04-11T04:01:19.565Z,260.00
2023-04-11T04:02:19.639Z,266.00
2023-04-11T04:03:19.734Z,262.00
2023-04-11T04:04:19.660Z,260.00
2023-04-11T04:05:19.524Z,266.00
2023-04-11T04:06:19.512Z,273.00
2023-04-11T04:07:19.491Z,271.00
2023-04-11T04:08:19.500Z,266.00
2023-04-11T04:09:19.481Z,267.00
2023-04-11T04:10:19.457Z,288.00
2023-04-11T04:11:19.464Z,252.00
2023-04-11T04:12:19.418Z,253.00
2023-04-11T04:13:19.444Z,268.00
2023-04-11T04:14:19.421Z,303.00
2023-04-11T04:15:19.426Z,320.00
2023-04-11T04:16:19.403Z,281.00
2023-04-11T04:17:19.358Z,292.00
2023-04-11T04:18:19.359Z,309.00
2023-04-11T04:19:19.362Z,286.00
2023-04-11T04:20:19.321Z,297.00
2023-04-11T04:21:19.317Z,292.00
2023-04-11T04:22:19.297Z,310.00
2023-04-11T04:23:19.288Z,300.00
2023-04-11T04:24:19.275Z,321.00
2023-04-11T04:25:19.278Z,296.00
2023-04-11T04:26:19.224Z,265.00
2023-04-11T04:27:19.252Z,276.00
2023-04-11T04:28:19.204Z,285.00
2023-04-11T04:29:19.199Z,260.00
2023-04-11T04:30:19.174Z,258.00
2023-04-11T04:31:19.189Z,315.00
2023-04-11T04:32:19.151Z,306.00
2023-04-11T04:33:19.144Z,324.00
2023-04-11T04:34:19.124Z,411.00
2023-04-11T04:35:19.133Z,419.00
2023-04-11T04:36:19.114Z,392.00
2023-04-11T04:37:19.112Z,357.00
2023-04-11T04:38:19.073Z,315.00
2023-04-11T04:39:19.060Z,225.00
2023-04-11T04:40:19.075Z,190.00
2023-04-11T04:41:19.056Z,206.00
2023-04-11T04:42:19.029Z,214.00
2023-04-11T04:43:19.102Z,257.00
2023-04-11T04:44:18.987Z,365.00
2023-04-11T04:45:19.003Z,397.00
2023-04-11T04:46:18.993Z,408.00
2023-04-11T04:47:18.994Z,411.00
2023-04-11T04:48:18.946Z,406.00
2023-04-11T04:49:18.941Z,369.00
2023-04-11T04:50:18.909Z,342.00
2023-04-11T04:51:18.900Z,343.00
2023-04-11T04:52:18.925Z,329.00
2023-04-11T04:53:18.877Z,325.00
2023-04-11T04:54:18.869Z,313.00
2023-04-11T04:55:18.860Z,312.00
2023-04-11T04:56:18.916Z,304.00
2023-04-11T04:57:18.835Z,255.00
2023-04-11T04:58:18.830Z,259.00
2023-04-11T04:59:18.836Z,252.00
2023-04-11T05:01:18.813Z,264.00
2023-04-11T05:02:18.810Z,266.00
2023-04-11T05:03:18.882Z,298.00
2023-04-11T05:04:18.835Z,302.00
2023-04-11T05:05:18.716Z,310.00
2023-04-11T05:06:19.842Z,319.00
2023-04-11T05:07:18.680Z,321.00
2023-04-11T05:08:18.714Z,326.00
2023-04-11T05:09:18.681Z,326.00
2023-04-11T05:10:18.673Z,322.00
2023-04-11T05:11:18.630Z,317.00
2023-04-11T05:12:18.642Z,303.00
2023-04-11T05:13:18.627Z,296.00
2023-04-11T05:14:18.594Z,293.00
2023-04-11T05:15:18.599Z,291.00
2023-04-11T05:16:18.591Z,297.00
2023-04-11T05:17:18.550Z,296.00
2023-04-11T05:18:18.552Z,302.00
2023-04-11T05:19:18.531Z,304.00
2023-04-11T05:20:18.533Z,314.00
2023-04-11T05:21:18.500Z,323.00
2023-04-11T05:22:18.511Z,324.00
2023-04-11T05:23:18.487Z,321.00
2023-04-11T05:24:18.489Z,316.00
2023-04-11T05:25:18.474Z,306.00
2023-04-11T05:26:18.458Z,309.00
2023-04-11T05:27:18.414Z,310.00
2023-04-11T05:28:18.409Z,289.00
2023-04-11T05:29:18.393Z,275.00
2023-04-11T05:30:18.405Z,273.00
2023-04-11T05:31:18.466Z,278.00
2023-04-11T05:32:18.359Z,274.00
2023-04-11T05:33:18.357Z,282.00
2023-04-11T05:34:18.355Z,306.00
2023-04-11T05:35:18.339Z,323.00
2023-04-11T05:36:18.379Z,328.00
2023-04-11T05:37:18.315Z,324.00
2023-04-11T05:38:18.282Z,325.00
2023-04-11T05:39:18.286Z,322.00
2023-04-11T05:40:18.265Z,316.00
2023-04-11T05:41:18.234Z,313.00
2023-04-11T05:42:18.234Z,312.00
2023-04-11T05:43:18.214Z,310.00
2023-04-11T05:44:18.227Z,310.00
2023-04-11T05:45:18.182Z,316.00
2023-04-11T05:46:18.246Z,326.00
2023-04-11T05:47:18.182Z,293.00
2023-04-11T05:48:18.189Z,294.00
2023-04-11T05:49:18.128Z,295.00
2023-04-11T05:50:18.173Z,298.00
2023-04-11T05:51:18.209Z,295.00
2023-04-11T05:52:18.177Z,282.00
2023-04-11T05:53:18.122Z,281.00
2023-04-11T05:54:18.093Z,267.00
2023-04-11T05:55:18.096Z,259.00
2023-04-11T05:56:18.091Z,264.00
2023-04-11T05:57:18.069Z,264.00
2023-04-11T05:58:18.076Z,268.00
2023-04-11T05:59:23.953Z,276.00
2023-04-11T06:00:18.020Z,284.00
2023-04-11T06:01:17.994Z,286.00
2023-04-11T06:02:18.118Z,307.00
2023-04-11T06:03:18.231Z,317.00
2023-04-11T06:04:18.166Z,314.00
2023-04-11T06:05:18.081Z,310.00
2023-04-11T06:06:17.937Z,310.00
2023-04-11T06:07:17.920Z,306.00
2023-04-11T06:08:17.930Z,295.00
2023-04-11T06:09:17.921Z,283.00
2023-04-11T06:10:17.881Z,293.00
2023-04-11T06:11:17.880Z,294.00
2023-04-11T06:12:17.864Z,290.00
2023-04-11T06:13:17.818Z,278.00
2023-04-11T06:14:17.827Z,271.00
2023-04-11T06:15:17.803Z,266.00
2023-04-11T06:16:17.862Z,268.00
2023-04-11T06:17:17.784Z,265.00
2023-04-11T06:18:17.754Z,263.00
2023-04-11T06:19:17.743Z,264.00
2023-04-11T06:20:17.757Z,267.00
2023-04-11T06:21:17.722Z,269.00
2023-04-11T06:22:17.711Z,269.00
2023-04-11T06:23:17.705Z,268.00
2023-04-11T06:24:17.696Z,268.00
2023-04-11T06:25:17.668Z,269.00
2023-04-11T06:26:17.645Z,270.00
2023-04-11T06:27:17.633Z,272.00
2023-04-11T06:28:17.617Z,270.00
2023-04-11T06:29:17.617Z,270.00
2023-04-11T06:30:17.608Z,275.00
2023-04-11T06:31:17.662Z,275.00
2023-04-11T06:32:17.586Z,278.00
2023-04-11T06:33:17.602Z,277.00
2023-04-11T06:34:17.561Z,276.00
2023-04-11T06:35:17.540Z,276.00
2023-04-11T06:36:17.573Z,276.00
2023-04-11T06:37:17.495Z,271.00
2023-04-11T06:38:17.512Z,269.00
2023-04-11T06:39:17.506Z,278.00
2023-04-11T06:40:17.473Z,308.00
2023-04-11T06:41:17.457Z,278.00
2023-04-11T06:42:17.474Z,361.00
2023-04-11T06:43:17.489Z,384.00
2023-04-11T06:44:17.459Z,408.00
2023-04-11T06:45:17.402Z,415.00
2023-04-11T06:46:17.419Z,379.00
2023-04-11T06:47:17.378Z,368.00
2023-04-11T06:48:17.406Z,362.00
2023-04-11T06:49:17.384Z,375.00
2023-04-11T06:50:17.361Z,404.00
2023-04-11T06:51:17.336Z,382.00
2023-04-11T06:52:17.331Z,368.00
2023-04-11T06:53:17.315Z,374.00
2023-04-11T06:54:17.341Z,361.00
2023-04-11T06:55:17.304Z,349.00
2023-04-11T06:56:17.300Z,267.00
2023-04-11T06:57:17.271Z,312.00
2023-04-11T06:58:17.264Z,309.00
2023-04-11T06:59:17.229Z,289.00
2023-04-11T07:00:17.285Z,278.00
2023-04-11T07:01:17.273Z,276.00
2023-04-11T07:02:17.264Z,276.00
2023-04-11T07:03:17.226Z,277.00
2023-04-11T07:04:17.330Z,282.00
2023-04-11T07:05:17.173Z,293.00
2023-04-11T07:06:17.175Z,314.00
2023-04-11T07:07:17.176Z,330.00
2023-04-11T07:08:17.139Z,316.00
2023-04-11T07:09:17.121Z,302.00
2023-04-11T07:10:17.134Z,285.00
2023-04-11T07:11:18.612Z,276.00
2023-04-11T07:12:17.088Z,281.00
2023-04-11T07:13:17.062Z,280.00
2023-04-11T07:14:17.070Z,294.00
2023-04-11T07:15:17.048Z,275.00
2023-04-11T07:16:17.152Z,268.00
2023-04-11T07:17:16.997Z,278.00
2023-04-11T07:18:17.013Z,299.00
2023-04-11T07:19:16.952Z,311.00
2023-04-11T07:20:16.955Z,309.00
2023-04-11T07:21:16.954Z,298.00
2023-04-11T07:22:16.942Z,281.00
2023-04-11T07:23:16.918Z,270.00
2023-04-11T07:24:16.913Z,263.00
2023-04-11T07:25:16.890Z,261.00
2023-04-11T07:26:16.884Z,261.00
2023-04-11T07:27:16.881Z,261.00
2023-04-11T07:28:16.836Z,265.00
2023-04-11T07:29:16.819Z,264.00
2023-04-11T07:30:16.887Z,267.00
2023-04-11T07:31:16.982Z,299.00
2023-04-11T07:32:16.796Z,243.00
2023-04-11T07:33:16.760Z,249.00
2023-04-11T07:34:16.779Z,261.00
2023-04-11T07:35:16.793Z,321.00
2023-04-11T07:36:16.843Z,321.00
2023-04-11T07:37:16.751Z,250.00
2023-04-11T07:38:16.792Z,265.00
2023-04-11T07:39:16.678Z,284.00
2023-04-11T07:40:16.671Z,288.00
2023-04-11T07:41:16.684Z,308.00
2023-04-11T07:42:16.749Z,319.00
2023-04-11T07:43:16.672Z,298.00
2023-04-11T07:44:16.662Z,280.00
2023-04-11T07:45:16.603Z,280.00
2023-04-11T07:46:16.625Z,271.00
2023-04-11T07:47:16.611Z,268.00
2023-04-11T07:48:16.617Z,267.00
2023-04-11T07:49:16.561Z,263.00
2023-04-11T07:50:16.575Z,262.00
2023-04-11T07:51:16.546Z,263.00
2023-04-11T07:52:16.546Z,263.00
2023-04-11T07:53:16.556Z,262.00
2023-04-11T07:54:16.536Z,265.00
2023-04-11T07:55:16.490Z,265.00
2023-04-11T07:56:16.497Z,264.00
2023-04-11T07:57:16.476Z,260.00
2023-04-11T07:58:16.487Z,302.00
2023-04-11T07:59:16.738Z,265.00
2023-04-11T08:00:16.583Z,302.00
2023-04-11T08:01:16.628Z,351.00
2023-04-11T08:02:16.703Z,390.00
2023-04-11T08:03:16.559Z,376.00
2023-04-11T08:04:16.742Z,338.00
2023-04-11T08:05:17.176Z,321.00
2023-04-11T08:06:16.979Z,316.00
2023-04-11T08:07:16.345Z,249.00
2023-04-11T08:08:16.564Z,246.00
2023-04-11T08:09:16.396Z,254.00
2023-04-11T08:10:16.331Z,316.00
2023-04-11T08:11:16.299Z,346.00
2023-04-11T08:12:16.311Z,346.00
2023-04-11T08:13:16.265Z,333.00
2023-04-11T08:14:16.248Z,335.00
2023-04-11T08:15:17.000Z,352.00
2023-04-11T08:16:16.248Z,354.00
2023-04-11T08:17:27.221Z,347.00
2023-04-11T08:18:16.258Z,319.00
2023-04-11T08:19:16.180Z,260.00
2023-04-11T08:20:16.171Z,298.00
2023-04-11T08:21:16.199Z,262.00
2023-04-11T08:22:16.159Z,263.00
2023-04-11T08:24:16.140Z,263.00
2023-04-11T08:25:16.100Z,260.00
2023-04-11T08:26:16.109Z,254.00
2023-04-11T08:27:16.057Z,260.00
2023-04-11T08:28:16.105Z,314.00
2023-04-11T08:29:16.032Z,327.00
2023-04-11T08:30:16.085Z,325.00
2023-04-11T08:31:16.064Z,348.00
2023-04-11T08:32:15.999Z,354.00
2023-04-11T08:33:16.021Z,276.00
2023-04-11T08:34:16.244Z,268.00
2023-04-11T08:35:15.955Z,265.00
2023-04-11T08:36:16.025Z,265.00
2023-04-11T08:37:15.957Z,381.00
2023-04-11T08:38:15.930Z,372.00
2023-04-11T08:39:15.925Z,318.00
2023-04-11T08:40:15.908Z,332.00
2023-04-11T08:41:15.892Z,304.00
2023-04-11T08:42:15.873Z,323.00
2023-04-11T08:43:15.883Z,413.00
2023-04-11T08:44:15.883Z,359.00
2023-04-11T08:45:15.844Z,314.00
2023-04-11T08:46:15.858Z,257.00
2023-04-11T08:47:15.809Z,260.00
2023-04-11T08:48:15.797Z,259.00
2023-04-11T08:49:15.986Z,267.00
2023-04-11T08:50:15.777Z,253.00
2023-04-11T08:51:15.783Z,273.00
2023-04-11T08:52:15.747Z,315.00
2023-04-11T08:53:15.756Z,332.00
2023-04-11T08:54:15.891Z,355.00
2023-04-11T08:55:15.680Z,349.00
2023-04-11T08:56:15.687Z,263.00
2023-04-11T08:57:15.683Z,311.00
2023-04-11T08:58:15.689Z,318.00
2023-04-11T08:59:15.672Z,300.00
2023-04-11T09:00:15.657Z,249.00
2023-04-11T09:01:15.652Z,244.00
2023-04-11T09:02:15.672Z,262.00
2023-04-11T09:03:15.703Z,294.00
2023-04-11T09:04:15.662Z,287.00
2023-04-11T09:05:15.575Z,303.00
2023-04-11T09:06:15.541Z,287.00
2023-04-11T09:07:15.523Z,271.00
2023-04-11T09:08:15.527Z,261.00
2023-04-11T09:09:15.524Z,273.00
2023-04-11T09:10:15.505Z,269.00
2023-04-11T09:11:15.471Z,266.00
2023-04-11T09:12:15.459Z,266.00
2023-04-11T09:13:15.457Z,280.00
2023-04-11T09:14:15.450Z,279.00
2023-04-11T09:15:15.454Z,273.00
2023-04-11T09:16:15.503Z,268.00
2023-04-11T09:17:15.395Z,285.00
2023-04-11T09:18:15.417Z,392.00
2023-04-11T09:19:15.405Z,381.00
2023-04-11T09:20:15.401Z,360.00
2023-04-11T09:21:15.345Z,365.00
2023-04-11T09:22:15.363Z,381.00
2023-04-11T09:23:15.337Z,389.00
2023-04-11T09:24:15.317Z,340.00
2023-04-11T09:25:15.287Z,320.00
2023-04-11T09:26:15.296Z,350.00
2023-04-11T09:27:15.279Z,322.00
2023-04-11T09:28:15.247Z,307.00
2023-04-11T09:29:15.262Z,303.00
2023-04-11T09:30:15.224Z,294.00
2023-04-11T09:31:15.235Z,259.00
2023-04-11T09:32:15.230Z,241.00
2023-04-11T09:33:15.202Z,228.00
2023-04-11T09:34:15.193Z,228.00
2023-04-11T09:35:15.180Z,251.00
2023-04-11T09:36:15.162Z,268.00
2023-04-11T09:37:15.194Z,282.00
2023-04-11T09:38:15.140Z,282.00
2023-04-11T09:39:15.101Z,291.00
2023-04-11T09:40:15.117Z,288.00
2023-04-11T09:41:15.086Z,291.00
2023-04-11T09:42:15.081Z,295.00
2023-04-11T09:43:15.082Z,294.00
2023-04-11T09:44:15.035Z,296.00
2023-04-11T09:45:15.040Z,298.00
2023-04-11T09:46:15.090Z,298.00
2023-04-11T09:47:15.058Z,301.00
2023-04-11T09:48:14.983Z,303.00
2023-04-11T09:49:15.006Z,306.00
2023-04-11T09:50:14.983Z,303.00
2023-04-11T09:51:24.393Z,303.00
2023-04-11T09:52:14.961Z,302.00
2023-04-11T09:53:14.919Z,302.00
2023-04-11T09:54:14.898Z,307.00
2023-04-11T09:55:14.919Z,309.00
2023-04-11T09:56:14.880Z,310.00
2023-04-11T09:57:14.895Z,308.00
2023-04-11T09:58:14.857Z,306.00
2023-04-11T09:59:14.880Z,310.00
2023-04-11T10:00:14.822Z,314.00
2023-04-11T10:01:14.832Z,316.00
2023-04-11T10:02:14.942Z,318.00
2023-04-11T10:03:14.891Z,319.00
2023-04-11T10:04:14.806Z,318.00
2023-04-11T10:05:14.876Z,319.00
2023-04-11T10:06:14.758Z,319.00
2023-04-11T10:07:14.765Z,319.00
2023-04-11T10:08:14.739Z,318.00
2023-04-11T10:09:14.750Z,317.00
2023-04-11T10:10:14.682Z,318.00
2023-04-11T10:11:14.678Z,313.00
2023-04-11T10:12:14.684Z,312.00
2023-04-11T10:13:14.667Z,312.00
2023-04-11T10:14:14.655Z,314.00
2023-04-11T10:15:14.637Z,316.00
2023-04-11T10:16:14.618Z,316.00
2023-04-11T10:17:15.810Z,315.00
2023-04-11T10:18:14.630Z,315.00
2023-04-11T10:19:14.572Z,316.00
2023-04-11T10:20:14.580Z,314.00
2023-04-11T10:21:14.562Z,320.00
2023-04-11T10:22:14.557Z,311.00
2023-04-11T10:23:14.563Z,308.00
2023-04-11T10:24:17.106Z,324.00
2023-04-11T10:25:14.595Z,289.00
2023-04-11T10:26:14.532Z,341.00
2023-04-11T10:27:14.487Z,340.00
2023-04-11T10:28:14.472Z,325.00
2023-04-11T10:29:14.474Z,322.00
2023-04-11T10:30:14.446Z,318.00
2023-04-11T10:31:14.624Z,317.00
2023-04-11T10:32:14.409Z,321.00
2023-04-11T10:33:14.835Z,311.00
2023-04-11T10:34:14.485Z,298.00
2023-04-11T10:35:14.385Z,328.00
2023-04-11T10:36:14.431Z,326.00
2023-04-11T10:37:14.380Z,307.00
2023-04-11T10:38:14.338Z,406.00
2023-04-11T10:39:14.321Z,348.00
2023-04-11T10:40:14.338Z,283.00
2023-04-11T10:41:14.319Z,292.00
2023-04-11T10:42:14.307Z,377.00
2023-04-11T10:43:14.288Z,362.00
2023-04-11T10:44:14.293Z,329.00
2023-04-11T10:45:14.277Z,270.00
2023-04-11T10:46:14.341Z,407.00
2023-04-11T10:47:14.236Z,244.00
2023-04-11T10:48:14.215Z,275.00
2023-04-11T10:49:14.209Z,399.00
2023-04-11T10:50:14.183Z,385.00
2023-04-11T10:51:14.233Z,334.00
2023-04-11T10:52:14.174Z,345.00
2023-04-11T10:53:14.234Z,344.00
2023-04-11T10:54:14.171Z,344.00
2023-04-11T10:55:14.237Z,343.00
2023-04-11T10:56:15.526Z,341.00
2023-04-11T10:57:14.142Z,338.00
2023-04-11T10:58:14.096Z,335.00
2023-04-11T10:59:14.046Z,331.00
2023-04-11T11:00:14.056Z,328.00
2023-04-11T11:01:21.436Z,324.00
2023-04-11T11:02:14.099Z,325.00
2023-04-11T11:03:14.117Z,324.00
2023-04-11T11:04:14.529Z,322.00
2023-04-11T11:05:14.000Z,323.00
2023-04-11T11:06:13.949Z,325.00
2023-04-11T11:07:13.939Z,324.00
2023-04-11T11:08:13.943Z,323.00
2023-04-11T11:09:13.942Z,321.00
2023-04-11T11:10:13.912Z,317.00
2023-04-11T11:11:13.903Z,307.00
2023-04-11T11:12:13.881Z,299.00
2023-04-11T11:13:13.865Z,288.00
2023-04-11T11:14:13.861Z,289.00
2023-04-11T11:15:13.848Z,287.00
2023-04-11T11:16:13.851Z,304.00
2023-04-11T11:17:13.887Z,321.00
2023-04-11T11:18:13.782Z,331.00
2023-04-11T11:19:13.821Z,336.00
2023-04-11T11:20:13.818Z,333.00
2023-04-11T11:28:31.826Z,256.00
2023-04-11T11:28:37.816Z,219.00
2023-04-11T11:29:37.847Z,295.00
2023-04-11T11:30:37.880Z,233.00
2023-04-11T11:31:37.846Z,278.00
2023-04-11T11:32:37.765Z,304.00
2023-04-11T11:33:37.738Z,241.00
2023-04-11T11:34:37.710Z,445.00
2023-04-11T11:35:37.712Z,344.00
2023-04-11T11:36:37.745Z,216.00
2023-04-11T11:37:37.688Z,377.00
2023-04-11T11:38:37.698Z,281.00
2023-04-11T11:39:37.669Z,318.00
2023-04-11T11:40:37.650Z,257.00
2023-04-11T11:41:37.629Z,217.00
2023-04-11T11:42:37.605Z,320.00
2023-04-11T11:43:37.616Z,319.00
2023-04-11T11:44:37.578Z,338.00
2023-04-11T11:45:37.589Z,343.00
2023-04-11T11:46:37.612Z,348.00
2023-04-11T11:47:37.600Z,270.00
2023-04-11T11:48:37.596Z,404.00
2023-04-11T11:49:37.537Z,253.00
2023-04-11T11:50:37.533Z,345.00
2023-04-11T11:51:37.532Z,358.00
2023-04-11T11:52:37.630Z,400.00
2023-04-11T11:53:37.454Z,278.00
2023-04-11T11:54:37.557Z,352.00
2023-04-11T11:55:37.459Z,489.00
2023-04-11T11:56:37.479Z,332.00
2023-04-11T11:57:37.542Z,226.00
2023-04-11T11:58:37.434Z,539.00
2023-04-11T11:59:37.408Z,419.00
2023-04-11T12:00:37.379Z,353.00
2023-04-11T12:01:37.434Z,301.00
2023-04-11T12:02:37.507Z,363.00
2023-04-11T12:03:37.582Z,304.00
2023-04-11T12:04:37.616Z,295.00
2023-04-11T12:05:37.480Z,290.00
2023-04-11T12:06:37.314Z,308.00
2023-04-11T12:07:37.316Z,340.00
2023-04-11T12:08:37.306Z,577.00
2023-04-11T12:09:37.274Z,429.00
2023-04-11T12:10:37.253Z,377.00
2023-04-11T12:11:39.079Z,368.00
2023-04-11T12:12:37.429Z,357.00
2023-04-11T12:13:37.213Z,349.00
2023-04-11T12:14:37.228Z,342.00
2023-04-11T12:15:37.283Z,338.00
2023-04-11T12:16:37.190Z,333.00
2023-04-11T12:17:38.059Z,329.00
2023-04-11T12:18:37.188Z,324.00
2023-04-11T12:19:37.217Z,322.00
2023-04-11T12:20:37.126Z,319.00
2023-04-11T12:21:37.147Z,319.00
2023-04-11T12:22:37.148Z,318.00
2023-04-11T12:23:37.087Z,317.00
2023-04-11T12:24:37.121Z,368.00
2023-04-11T12:25:37.071Z,352.00
2023-04-11T12:26:40.060Z,135.00
2023-04-11T12:27:37.077Z,268.00
2023-04-11T12:28:37.073Z,290.00
2023-04-11T12:29:37.064Z,353.00
2023-04-11T12:30:36.996Z,398.00
2023-04-11T12:31:36.988Z,422.00
2023-04-11T12:32:37.010Z,365.00
2023-04-11T12:33:36.939Z,359.00
2023-04-11T12:34:36.972Z,271.00
2023-04-11T12:35:36.952Z,343.00
2023-04-11T12:36:37.078Z,380.00